Time;durP1;ratioP1;P1;durP2;ratioP2;P2;SDS_P1;SDS_P2;PMS_P1;PMS_P2;Temp;Humidity;BMP_temperature;BMP_pressure;BME280_temperature;BME280_humidity;BME280_pressure;Samples;Min_cycle;Max_cycle;Signal;HPM_P1;HPM_P2
2021/12/31 00:01:41;;;;;;;;;;;;;;;21.76;24.18;98395.28;4938060;29;1898;-73
2021/12/31 00:04:07;;;;;;;;;;;;;;;22.01;23.81;98406.09;4918389;29;1007;-73
2021/12/31 00:06:32;;;;;;;;;;;;;;;22.45;23.34;98410.41;4918785;29;1240;-73
2021/12/31 00:08:58;;;;;;;;;;;;;;;22.34;23.36;98407.81;4918583;29;996;-73
2021/12/31 00:11:23;;;;;;;;;;;;;;;22.34;23.52;98410.66;4918531;29;1090;-73
2021/12/31 00:13:48;;;;;;;;;;;;;;;22.13;23.89;98408.31;4883033;29;1067;-73
2021/12/31 00:16:14;;;;;;;;;;;;;;;21.56;24.52;98395.31;4886024;29;985;-73
2021/12/31 00:18:39;;;;;;;;;;;;;;;22.12;23.78;98401.00;4881048;29;964;-73
2021/12/31 00:21:05;;;;;;;;;;;;;;;22.22;23.53;98388.63;4880605;29;1115;-73
2021/12/31 00:23:31;;;;;;;;;;;;;;;22.38;23.56;98385.03;4880879;29;1993;-73
2021/12/31 00:25:56;;;;;;;;;;;;;;;22.36;23.46;98384.69;4881027;29;952;-74
2021/12/31 00:28:22;;;;;;;;;;;;;;;22.31;23.31;98391.66;4881038;29;1083;-73
2021/12/31 00:30:55;;;;;;;;;;;;;;;22.03;23.73;98387.44;4880993;29;1060;-73
2021/12/31 00:33:21;;;;;;;;;;;;;;;22.12;23.76;98398.19;4881088;29;981;-74
2021/12/31 00:35:46;;;;;;;;;;;;;;;22.16;23.51;98387.56;4872535;29;1067;-73
2021/12/31 00:38:11;;;;;;;;;;;;;;;21.92;23.70;98391.75;4880674;29;979;-73
2021/12/31 00:40:37;;;;;;;;;;;;;;;22.27;23.58;98390.16;4880471;29;1006;-74
2021/12/31 00:43:03;;;;;;;;;;;;;;;22.38;23.17;98395.56;4880703;29;1960;-73
2021/12/31 00:45:28;;;;;;;;;;;;;;;22.07;23.54;98381.66;4880431;29;1055;-74
2021/12/31 00:47:54;;;;;;;;;;;;;;;21.98;23.96;98384.31;4864941;29;951;-74
2021/12/31 00:50:19;;;;;;;;;;;;;;;21.94;23.80;98394.94;4887541;29;1029;-73
2021/12/31 00:52:45;;;;;;;;;;;;;;;22.03;23.46;98393.09;4936897;29;974;-73
2021/12/31 00:55:10;;;;;;;;;;;;;;;21.58;23.94;98390.81;4936822;29;1136;-74
2021/12/31 00:57:36;;;;;;;;;;;;;;;21.68;24.19;98389.00;4921310;29;1276;-74
2021/12/31 01:00:02;;;;;;;;;;;;;;;21.21;24.93;98393.94;4936833;29;1068;-74
2021/12/31 01:02:29;;;;;;;;;;;;;;;21.67;24.41;98393.06;4936953;29;1907;-74
2021/12/31 01:04:54;;;;;;;;;;;;;;;21.49;24.32;98386.94;4936760;29;1022;-73
2021/12/31 01:07:20;;;;;;;;;;;;;;;21.93;24.11;98382.00;4913460;29;1074;-73
2021/12/31 01:09:46;;;;;;;;;;;;;;;22.17;23.68;98386.31;4917865;29;1013;-74
2021/12/31 01:12:13;;;;;;;;;;;;;;;22.26;23.36;98388.56;4917995;29;930;-74
2021/12/31 01:14:50;;;;;;;;;;;;;;;22.15;23.53;98394.47;4917907;29;955;-73
2021/12/31 01:17:21;;;;;;;;;;;;;;;21.64;24.21;98388.25;4917627;29;962;-73
2021/12/31 01:19:50;;;;;;;;;;;;;;;21.47;24.75;98383.78;4917749;29;1034;-74
2021/12/31 01:22:17;;;;;;;;;;;;;;;22.10;23.79;98386.47;4917774;29;1898;-73
2021/12/31 01:24:42;;;;;;;;;;;;;;;22.39;23.52;98388.69;4917772;29;1067;-73
2021/12/31 01:27:08;;;;;;;;;;;;;;;22.60;22.93;98391.81;4917440;29;1042;-74
2021/12/31 01:29:36;;;;;;;;;;;;;;;21.93;24.06;98382.00;4917673;29;1018;-73
2021/12/31 01:32:02;;;;;;;;;;;;;;;21.93;24.14;98376.34;4897673;29;1109;-73
2021/12/31 01:34:27;;;;;;;;;;;;;;;22.01;23.77;98381.38;4898873;29;1043;-73
2021/12/31 01:36:53;;;;;;;;;;;;;;;22.08;23.60;98366.28;4898756;29;1128;-74
2021/12/31 01:39:18;;;;;;;;;;;;;;;22.36;23.23;98374.13;4915917;29;1128;-74
2021/12/31 01:41:44;;;;;;;;;;;;;;;22.20;23.76;98368.44;4917459;29;1907;-73
2021/12/31 01:44:09;;;;;;;;;;;;;;;22.26;23.47;98361.00;4917369;29;979;-74
2021/12/31 01:46:39;;;;;;;;;;;;;;;22.30;23.71;98353.22;4917320;29;994;-74
2021/12/31 01:49:07;;;;;;;;;;;;;;;21.85;23.94;98356.66;4917470;29;989;-74
2021/12/31 01:51:33;;;;;;;;;;;;;;;22.21;23.40;98347.38;4879699;29;1050;-73
2021/12/31 01:54:01;;;;;;;;;;;;;;;22.30;23.67;98355.28;4879820;29;965;-74
2021/12/31 01:56:28;;;;;;;;;;;;;;;22.19;23.56;98349.06;4879905;29;1141;-74
2021/12/31 01:58:54;;;;;;;;;;;;;;;21.97;23.83;98337.41;4879412;29;1018;-73
2021/12/31 02:01:20;;;;;;;;;;;;;;;21.19;24.88;98329.31;4879473;29;963;-74
2021/12/31 02:03:46;;;;;;;;;;;;;;;21.57;24.34;98337.44;4879435;29;1993;-73
2021/12/31 02:06:11;;;;;;;;;;;;;;;21.83;24.26;98330.81;4879955;29;1047;-74
2021/12/31 02:08:37;;;;;;;;;;;;;;;22.05;23.91;98333.94;4879767;29;1009;-73
2021/12/31 02:11:02;;;;;;;;;;;;;;;21.93;23.70;98331.00;4879370;29;1067;-74
2021/12/31 02:13:28;;;;;;;;;;;;;;;22.29;23.62;98331.78;4879849;29;1089;-74
2021/12/31 02:15:54;;;;;;;;;;;;;;;22.18;23.55;98342.59;4879814;29;1067;-73
2021/12/31 02:18:19;;;;;;;;;;;;;;;21.93;23.82;98348.00;4848553;29;904;-73
2021/12/31 02:20:47;;;;;;;;;;;;;;;21.79;23.89;98349.91;4863870;29;964;-73
2021/12/31 02:23:23;;;;;;;;;;;;;;;21.96;24.01;98347.13;4923580;28;1910;-73
2021/12/31 02:25:49;;;;;;;;;;;;;;;21.64;24.12;98340.13;4917352;29;1045;-73
2021/12/31 02:28:15;;;;;;;;;;;;;;;21.83;23.93;98356.28;4917034;29;963;-74
2021/12/31 02:30:40;;;;;;;;;;;;;;;20.86;23.31;98130.31;4901513;29;982;-73
2021/12/31 02:33:06;;;;;;;;;;;;;;;21.79;23.67;98378.22;4917156;29;955;-73
2021/12/31 02:35:32;;;;;;;;;;;;;;;21.77;24.25;98371.41;4917023;29;1014;-73
2021/12/31 02:37:57;;;;;;;;;;;;;;;22.22;23.60;98365.97;4879347;29;992;-73
2021/12/31 02:40:24;;;;;;;;;;;;;;;22.40;23.28;98367.59;4879362;29;1315;-73
2021/12/31 02:42:49;;;;;;;;;;;;;;;22.07;23.80;98356.16;4879400;29;1985;-73
2021/12/31 02:45:15;;;;;;;;;;;;;;;21.89;23.96;98353.75;4883009;29;963;-73
2021/12/31 02:47:46;;;;;;;;;;;;;;;22.05;23.49;98350.94;4882693;29;1047;-73
2021/12/31 02:50:12;;;;;;;;;;;;;;;22.00;23.64;98359.16;4882998;29;982;-73
2021/12/31 02:52:38;;;;;;;;;;;;;;;22.07;23.73;98359.00;4863950;29;997;-74
2021/12/31 02:55:06;;;;;;;;;;;;;;;21.89;24.05;98361.44;4864155;29;991;-73
2021/12/31 02:57:31;;;;;;;;;;;;;;;22.25;23.17;98362.25;4894290;29;1105;-73
2021/12/31 02:59:57;;;;;;;;;;;;;;;21.85;23.80;98362.31;4900829;29;978;-73
2021/12/31 03:02:24;;;;;;;;;;;;;;;21.56;24.10;98375.50;4900793;29;1970;-73
2021/12/31 03:04:55;;;;;;;;;;;;;;;21.65;24.14;98378.53;4901414;29;951;-73
2021/12/31 03:07:21;;;;;;;;;;;;;;;22.15;23.47;98377.47;4900992;29;1001;-73
2021/12/31 03:09:48;;;;;;;;;;;;;;;22.22;23.51;98371.63;4932779;29;1064;-73
2021/12/31 03:12:13;;;;;;;;;;;;;;;22.34;23.00;98379.47;4923202;29;989;-74
2021/12/31 03:14:39;;;;;;;;;;;;;;;22.38;23.04;98379.34;4938931;29;1005;-74
2021/12/31 03:17:05;;;;;;;;;;;;;;;22.06;23.72;98369.53;4922598;29;1032;-73
2021/12/31 03:19:30;;;;;;;;;;;;;;;22.39;23.03;98369.63;4900545;29;1006;-73
2021/12/31 03:21:56;;;;;;;;;;;;;;;22.35;23.34;98369.72;4900765;29;1906;-73
2021/12/31 03:24:21;;;;;;;;;;;;;;;22.18;23.41;98376.59;4900465;29;1078;-73
2021/12/31 03:26:47;;;;;;;;;;;;;;;21.73;23.99;98382.81;4915807;29;1028;-73
2021/12/31 03:29:12;;;;;;;;;;;;;;;22.25;23.39;98376.44;4919626;29;1017;-73
2021/12/31 03:31:37;;;;;;;;;;;;;;;22.20;23.35;98379.78;4919537;29;965;-73
2021/12/31 03:34:03;;;;;;;;;;;;;;;22.39;23.36;98380.19;4919468;29;1003;-73
2021/12/31 03:36:29;;;;;;;;;;;;;;;22.26;23.39;98395.03;4919316;29;1088;-74
2021/12/31 03:38:54;;;;;;;;;;;;;;;21.89;24.03;98392.59;4919659;29;952;-73
2021/12/31 03:41:20;;;;;;;;;;;;;;;21.26;24.60;98391.41;4919471;29;1008;-74
2021/12/31 03:43:45;;;;;;;;;;;;;;;22.00;24.01;98387.50;4919301;29;1988;-74
2021/12/31 03:46:11;;;;;;;;;;;;;;;21.85;23.79;98387.81;4919519;29;1028;-74
2021/12/31 03:48:36;;;;;;;;;;;;;;;22.33;23.52;98392.03;4919382;29;1511;-73
2021/12/31 03:51:02;;;;;;;;;;;;;;;22.11;23.55;98393.75;4918878;29;1017;-73
2021/12/31 03:53:27;;;;;;;;;;;;;;;22.31;23.38;98405.84;4919242;29;1076;-74
2021/12/31 03:55:53;;;;;;;;;;;;;;;22.44;23.14;98405.19;4922139;28;1017;-74
2021/12/31 03:58:18;;;;;;;;;;;;;;;21.98;23.95;98404.16;4918561;29;1131;-74
2021/12/31 04:00:45;;;;;;;;;;;;;;;22.23;23.41;98415.78;4918844;29;977;-74
2021/12/31 04:03:11;;;;;;;;;;;;;;;22.41;23.28;98397.53;4918702;29;1915;-74
2021/12/31 04:05:37;;;;;;;;;;;;;;;22.50;23.00;98398.53;4919015;29;1222;-74
2021/12/31 04:08:03;;;;;;;;;;;;;;;22.04;23.52;98400.34;4918758;29;992;-74
2021/12/31 04:10:29;;;;;;;;;;;;;;;21.98;23.96;98398.50;4918608;29;1508;-74
2021/12/31 04:12:54;;;;;;;;;;;;;;;21.79;24.21;98403.72;4918759;29;905;-74
2021/12/31 04:15:20;;;;;;;;;;;;;;;21.81;24.21;98408.94;4918475;29;950;-74
2021/12/31 04:17:45;;;;;;;;;;;;;;;22.23;23.77;98412.13;4919072;29;1019;-73
2021/12/31 04:20:18;;;;;;;;;;;;;;;21.97;23.70;98402.56;4918824;29;965;-74
2021/12/31 04:22:51;;;;;;;;;;;;;;;22.16;23.77;98407.41;4918268;29;1907;-74
2021/12/31 04:25:17;;;;;;;;;;;;;;;22.34;23.33;98410.66;4918375;29;940;-74
2021/12/31 04:27:42;;;;;;;;;;;;;;;22.01;23.73;98411.75;4918357;29;1209;-74
2021/12/31 04:30:08;;;;;;;;;;;;;;;22.12;23.64;98423.69;4969036;28;1113;-74
2021/12/31 04:32:33;;;;;;;;;;;;;;;22.19;23.51;98428.41;4937048;29;934;-74
2021/12/31 04:34:59;;;;;;;;;;;;;;;22.13;23.86;98416.81;4937128;29;903;-74
2021/12/31 04:37:24;;;;;;;;;;;;;;;21.67;24.30;98415.72;4937520;29;1010;-74
2021/12/31 04:39:50;;;;;;;;;;;;;;;22.21;24.00;98426.72;4937160;29;911;-74
2021/12/31 04:42:15;;;;;;;;;;;;;;;22.10;23.63;98426.16;4937332;29;1910;-74
2021/12/31 04:44:41;;;;;;;;;;;;;;;22.35;23.65;98432.09;4937359;29;1009;-74
2021/12/31 04:47:06;;;;;;;;;;;;;;;22.05;23.89;98430.28;4936968;29;1194;-74
2021/12/31 04:49:32;;;;;;;;;;;;;;;21.71;24.40;98427.78;4937186;29;995;-74
2021/12/31 04:51:57;;;;;;;;;;;;;;;21.67;24.41;98429.88;4937032;29;935;-74
2021/12/31 04:54:23;;;;;;;;;;;;;;;22.14;23.80;98434.59;4902317;29;1083;-75
2021/12/31 04:56:52;;;;;;;;;;;;;;;22.10;23.73;98428.97;4919486;29;1260;-74
2021/12/31 04:59:18;;;;;;;;;;;;;;;22.05;23.86;98429.50;4917951;29;959;-74
2021/12/31 05:01:43;;;;;;;;;;;;;;;22.14;23.57;98429.72;4917666;29;960;-74
2021/12/31 05:04:08;;;;;;;;;;;;;;;22.15;23.88;98445.50;4932198;29;1976;-74
2021/12/31 05:06:34;;;;;;;;;;;;;;;21.87;23.93;98446.09;4936541;29;979;-74
2021/12/31 05:08:59;;;;;;;;;;;;;;;22.12;23.84;98452.03;4920943;29;1046;-74
2021/12/31 05:11:25;;;;;;;;;;;;;;;21.96;23.82;98457.59;4936553;29;973;-74
2021/12/31 05:13:51;;;;;;;;;;;;;;;21.93;24.00;98455.66;4936564;29;1053;-74
2021/12/31 05:16:16;;;;;;;;;;;;;;;21.75;23.95;98456.00;4936541;29;902;-74
2021/12/31 05:18:41;;;;;;;;;;;;;;;22.26;23.52;98448.88;4936342;29;1013;-74
2021/12/31 05:21:07;;;;;;;;;;;;;;;22.06;23.73;98445.25;4936806;29;925;-74
2021/12/31 05:23:32;;;;;;;;;;;;;;;21.89;24.06;98440.78;4936730;29;2217;-74
2021/12/31 05:25:58;;;;;;;;;;;;;;;21.99;23.74;98442.59;4896786;29;1065;-74
2021/12/31 05:28:23;;;;;;;;;;;;;;;22.10;23.59;98437.47;4898368;29;1088;-74
2021/12/31 05:30:49;;;;;;;;;;;;;;;21.84;23.95;98442.06;4912071;29;977;-74
2021/12/31 05:33:14;;;;;;;;;;;;;;;22.20;23.54;98435.69;4917615;29;986;-74
2021/12/31 05:35:39;;;;;;;;;;;;;;;22.06;23.60;98437.53;4886005;29;992;-74
2021/12/31 05:38:05;;;;;;;;;;;;;;;21.99;23.76;98439.75;4917682;29;979;-74
2021/12/31 05:40:30;;;;;;;;;;;;;;;22.04;23.99;98440.03;4917231;29;992;-74
2021/12/31 05:42:56;;;;;;;;;;;;;;;22.15;23.58;98451.16;4917432;29;1906;-74
2021/12/31 05:45:21;;;;;;;;;;;;;;;22.15;23.65;98437.00;4917459;29;1017;-74
2021/12/31 05:47:48;;;;;;;;;;;;;;;21.87;24.17;98434.75;4917185;29;1096;-74
2021/12/31 05:50:27;;;;;;;;;;;;;;;22.19;23.50;98434.09;4917447;29;1064;-74
2021/12/31 05:52:56;;;;;;;;;;;;;;;22.08;23.65;98434.28;4917666;29;1045;-74
2021/12/31 05:55:22;;;;;;;;;;;;;;;21.89;24.21;98426.59;4917079;29;1238;-74
2021/12/31 05:57:47;;;;;;;;;;;;;;;22.19;23.67;98434.88;4967799;28;1164;-74
2021/12/31 06:00:13;;;;;;;;;;;;;;;21.85;23.69;98440.84;4942942;28;1022;-73
2021/12/31 06:02:38;;;;;;;;;;;;;;;22.10;23.61;98437.47;4977137;28;1910;-74
2021/12/31 06:05:04;;;;;;;;;;;;;;;22.17;23.57;98442.22;4942234;28;934;-74
2021/12/31 06:07:29;;;;;;;;;;;;;;;21.47;24.60;98443.22;4935809;29;1000;-74
2021/12/31 06:09:55;;;;;;;;;;;;;;;21.51;24.58;98441.13;4936287;29;1060;-74
2021/12/31 06:12:23;;;;;;;;;;;;;;;21.91;23.99;98429.78;4936319;29;1000;-74
2021/12/31 06:14:49;;;;;;;;;;;;;;;21.44;24.66;98432.75;4917195;29;1037;-74
2021/12/31 06:17:16;;;;;;;;;;;;;;;21.93;23.95;98438.66;4917221;29;1160;-74
2021/12/31 06:19:42;;;;;;;;;;;;;;;21.76;24.25;98441.44;4904771;29;1041;-74
2021/12/31 06:22:07;;;;;;;;;;;;;;;21.79;24.02;98448.25;4920930;29;1997;-74
2021/12/31 06:24:33;;;;;;;;;;;;;;;22.00;23.68;98461.19;4920379;29;965;-74
2021/12/31 06:26:58;;;;;;;;;;;;;;;21.70;24.19;98470.69;4920854;29;987;-74
2021/12/31 06:29:24;;;;;;;;;;;;;;;21.83;24.03;98458.28;4920461;29;1011;-74
2021/12/31 06:31:49;;;;;;;;;;;;;;;22.14;23.78;98457.28;4920712;29;879;-74
2021/12/31 06:34:14;;;;;;;;;;;;;;;21.96;23.98;98460.44;4920681;29;965;-74
2021/12/31 06:36:40;;;;;;;;;;;;;;;21.98;23.82;98452.31;4920785;29;982;-74
2021/12/31 06:39:05;;;;;;;;;;;;;;;21.99;23.91;98451.88;4934794;29;1018;-74
2021/12/31 06:41:31;;;;;;;;;;;;;;;21.99;23.69;98453.91;4939522;29;1064;-74
2021/12/31 06:43:56;;;;;;;;;;;;;;;21.96;23.83;98449.09;4939156;29;1962;-74
2021/12/31 06:46:22;;;;;;;;;;;;;;;21.65;24.11;98452.16;4970523;28;906;-74
2021/12/31 06:48:47;;;;;;;;;;;;;;;21.74;23.84;98454.41;4980140;28;935;-74
2021/12/31 06:51:13;;;;;;;;;;;;;;;21.78;23.83;98438.16;4980054;28;961;-74
2021/12/31 06:53:38;;;;;;;;;;;;;;;21.59;24.29;98451.06;4979652;28;906;-73
2021/12/31 06:56:04;;;;;;;;;;;;;;;21.82;23.94;98456.69;4979478;28;1077;-74
2021/12/31 06:58:29;;;;;;;;;;;;;;;21.87;24.02;98474.41;4942614;29;953;-74
2021/12/31 07:00:55;;;;;;;;;;;;;;;21.60;24.22;98486.63;4977887;28;900;-74
2021/12/31 07:03:20;;;;;;;;;;;;;;;21.74;24.10;98480.72;4979822;28;1957;-74
2021/12/31 07:05:46;;;;;;;;;;;;;;;21.67;23.99;98485.72;4977639;28;1002;-74
2021/12/31 07:08:13;;;;;;;;;;;;;;;22.03;23.81;98482.97;4979611;28;870;-74
2021/12/31 07:10:38;;;;;;;;;;;;;;;22.18;23.30;98472.19;4979743;28;910;-74
2021/12/31 07:13:05;;;;;;;;;;;;;;;21.77;24.01;98477.03;4979559;28;920;-74
2021/12/31 07:15:31;;;;;;;;;;;;;;;22.24;23.22;98491.06;4938512;29;1036;-74
2021/12/31 07:17:56;;;;;;;;;;;;;;;22.30;23.29;98486.47;4938893;29;1050;-74
2021/12/31 07:20:22;;;;;;;;;;;;;;;22.40;23.22;98466.84;4938881;29;1018;-74
2021/12/31 07:22:47;;;;;;;;;;;;;;;22.03;23.79;98466.78;4938495;29;1903;-74
2021/12/31 07:25:13;;;;;;;;;;;;;;;21.68;24.30;98459.78;4938689;29;966;-74
2021/12/31 07:27:38;;;;;;;;;;;;;;;21.67;24.32;98466.69;4938613;29;980;-74
2021/12/31 07:30:04;;;;;;;;;;;;;;;21.79;24.42;98460.38;4938201;29;986;-74
2021/12/31 07:32:34;;;;;;;;;;;;;;;21.90;24.11;98467.84;4938459;29;925;-74
2021/12/31 07:34:59;;;;;;;;;;;;;;;21.87;24.22;98474.41;4906261;29;1033;-75
2021/12/31 07:37:25;;;;;;;;;;;;;;;22.09;23.93;98465.03;4938278;29;1025;-74
2021/12/31 07:40:00;;;;;;;;;;;;;;;21.78;24.37;98470.13;4938122;29;961;-75
2021/12/31 07:42:25;;;;;;;;;;;;;;;21.96;24.04;98466.91;4938431;29;1983;-74
2021/12/31 07:44:51;;;;;;;;;;;;;;;22.26;23.74;98468.72;4938420;29;1039;-75
2021/12/31 07:47:16;;;;;;;;;;;;;;;21.85;24.06;98475.63;4954479;29;1073;-74
2021/12/31 07:49:42;;;;;;;;;;;;;;;22.24;23.83;98459.88;4957600;29;994;-74
2021/12/31 07:52:07;;;;;;;;;;;;;;;22.51;23.53;98458.88;4925108;29;1090;-74
2021/12/31 07:54:32;;;;;;;;;;;;;;;22.85;23.48;98442.25;4925568;29;1028;-75
2021/12/31 07:56:58;;;;;;;;;;;;;;;22.02;24.37;98441.69;4957303;29;1555;-74
2021/12/31 07:59:23;;;;;;;;;;;;;;;21.44;25.42;98458.22;4924927;29;1003;-74
2021/12/31 08:01:49;;;;;;;;;;;;;;;21.59;25.42;98468.84;4956998;29;1091;-74
2021/12/31 08:04:14;;;;;;;;;;;;;;;21.79;24.93;98468.88;4925275;29;1911;-74
2021/12/31 08:06:40;;;;;;;;;;;;;;;21.83;25.30;98469.59;4956761;29;968;-74
2021/12/31 08:09:05;;;;;;;;;;;;;;;21.74;25.45;98465.75;4956970;29;1035;-74
2021/12/31 08:11:31;;;;;;;;;;;;;;;21.66;25.54;98459.44;4959822;28;961;-75
2021/12/31 08:13:56;;;;;;;;;;;;;;;21.59;25.25;98454.69;4978749;28;965;-74
2021/12/31 08:16:22;;;;;;;;;;;;;;;21.93;24.84;98447.16;4961165;28;953;-74
2021/12/31 08:18:47;;;;;;;;;;;;;;;21.81;24.86;98438.09;4978157;28;1103;-74
2021/12/31 08:21:12;;;;;;;;;;;;;;;22.05;24.61;98440.81;4943905;28;973;-74
2021/12/31 08:23:38;;;;;;;;;;;;;;;22.49;24.11;98450.03;4978463;28;1910;-74
2021/12/31 08:26:05;;;;;;;;;;;;;;;22.86;23.58;98454.41;4943867;28;973;-74
2021/12/31 08:28:30;;;;;;;;;;;;;;;22.00;24.38;98449.84;4978406;28;1019;-74
2021/12/31 08:30:59;;;;;;;;;;;;;;;22.00;24.73;98449.84;4937168;29;985;-75
2021/12/31 08:33:25;;;;;;;;;;;;;;;21.74;25.24;98448.75;4937718;29;971;-75
2021/12/31 08:35:51;;;;;;;;;;;;;;;22.95;23.45;98434.75;4918179;29;1124;-75
2021/12/31 08:38:16;;;;;;;;;;;;;;;22.22;24.43;98445.31;4918197;29;926;-75
2021/12/31 08:40:41;;;;;;;;;;;;;;;22.13;24.36;98436.66;4918235;29;966;-75
2021/12/31 08:43:07;;;;;;;;;;;;;;;21.60;25.53;98438.50;4918140;29;1910;-75
2021/12/31 08:45:35;;;;;;;;;;;;;;;22.04;24.93;98425.06;4918053;29;1004;-75
2021/12/31 08:48:01;;;;;;;;;;;;;;;22.09;24.68;98430.22;4918364;29;1094;-75
2021/12/31 08:50:26;;;;;;;;;;;;;;;22.06;24.83;98419.75;4902043;29;1424;-75
2021/12/31 08:52:52;;;;;;;;;;;;;;;21.58;25.71;98412.66;4917993;29;936;-75
2021/12/31 08:55:17;;;;;;;;;;;;;;;21.65;25.35;98412.50;4918120;29;940;-75
2021/12/31 08:57:43;;;;;;;;;;;;;;;22.04;24.84;98405.22;4917998;29;1234;-75
2021/12/31 09:00:09;;;;;;;;;;;;;;;22.25;24.48;98407.63;4880468;29;1323;-75
2021/12/31 09:02:35;;;;;;;;;;;;;;;22.03;25.15;98397.97;4848908;29;1986;-75
2021/12/31 09:05:01;;;;;;;;;;;;;;;21.68;25.31;98394.66;4880463;29;1029;-75
2021/12/31 09:07:26;;;;;;;;;;;;;;;21.70;25.34;98389.34;4908806;29;1152;-75
2021/12/31 09:09:52;;;;;;;;;;;;;;;22.21;24.67;98387.03;4886262;29;1065;-75
2021/12/31 09:12:17;;;;;;;;;;;;;;;22.06;25.23;98392.22;4917728;29;1079;-75
2021/12/31 09:14:43;;;;;;;;;;;;;;;21.58;25.61;98384.34;4879989;29;1024;-75
2021/12/31 09:17:08;;;;;;;;;;;;;;;21.67;25.62;98376.06;4879897;29;975;-73
2021/12/31 09:19:34;;;;;;;;;;;;;;;21.90;25.46;98389.34;4879819;29;1019;-75
2021/12/31 09:21:59;;;;;;;;;;;;;;;22.29;24.48;98385.66;4880097;29;1016;-75
2021/12/31 09:24:25;;;;;;;;;;;;;;;21.87;25.40;98383.75;4879919;29;1994;-75
2021/12/31 09:26:50;;;;;;;;;;;;;;;21.88;25.59;98368.34;4880098;29;1049;-75
2021/12/31 09:29:18;;;;;;;;;;;;;;;22.29;24.68;98377.16;4861566;29;995;-75
2021/12/31 09:31:44;;;;;;;;;;;;;;;22.37;24.59;98377.78;4861550;29;992;-75
2021/12/31 09:34:09;;;;;;;;;;;;;;;22.05;25.18;98359.44;4861203;29;986;-75
2021/12/31 09:36:35;;;;;;;;;;;;;;;21.88;25.32;98352.16;4863330;29;1084;-75
2021/12/31 09:39:00;;;;;;;;;;;;;;;22.22;24.89;98348.94;4880093;29;898;-75
2021/12/31 09:41:26;;;;;;;;;;;;;;;22.58;24.27;98348.88;4879997;29;892;-75
2021/12/31 09:43:51;;;;;;;;;;;;;;;21.68;25.60;98343.69;4879968;29;1911;-75
2021/12/31 09:46:20;;;;;;;;;;;;;;;21.54;25.91;98343.97;4893758;29;991;-75
2021/12/31 09:48:45;;;;;;;;;;;;;;;21.94;25.36;98346.75;4912951;29;880;-75
2021/12/31 09:51:10;;;;;;;;;;;;;;;21.83;25.82;98350.63;4917608;29;968;-75
2021/12/31 09:53:36;;;;;;;;;;;;;;;21.71;25.96;98358.97;4919080;29;948;-75
2021/12/31 09:56:04;;;;;;;;;;;;;;;22.33;25.13;98360.88;4899319;29;1436;-75
2021/12/31 09:58:29;;;;;;;;;;;;;;;21.77;25.54;98358.06;4912808;29;1169;-75
2021/12/31 10:01:01;;;;;;;;;;;;;;;22.34;25.06;98348.28;4905219;29;1320;-75
2021/12/31 10:03:28;;;;;;;;;;;;;;;22.65;24.64;98342.25;4909766;29;1986;-75
2021/12/31 10:06:05;;;;;;;;;;;;;;;22.41;24.98;98343.66;4911788;29;1322;-75
2021/12/31 10:08:31;;;;;;;;;;;;;;;22.27;24.86;98345.59;4909631;29;1219;-75
2021/12/31 10:11:06;;;;;;;;;;;;;;;21.71;25.84;98345.66;4868044;29;1241;-75
2021/12/31 10:13:32;;;;;;;;;;;;;;;21.98;25.54;98336.16;4907972;29;2111;-75
2021/12/31 10:16:00;;;;;;;;;;;;;;;21.71;26.16;98342.00;4902317;29;979;-75
2021/12/31 10:18:29;;;;;;;;;;;;;;;21.75;25.93;98315.19;4845999;29;1054;-75
2021/12/31 10:20:57;;;;;;;;;;;;;;;21.91;26.08;98316.47;4845954;29;979;-74
2021/12/31 10:23:23;;;;;;;;;;;;;;;22.13;25.47;98320.44;4809381;29;1998;-75
2021/12/31 10:25:48;;;;;;;;;;;;;;;22.00;25.45;98308.16;4809794;29;1047;-75
2021/12/31 10:28:15;;;;;;;;;;;;;;;21.94;25.57;98310.72;4794410;29;972;-75
2021/12/31 10:30:41;;;;;;;;;;;;;;;21.90;26.02;98303.53;4773631;30;1009;-75
2021/12/31 10:33:06;;;;;;;;;;;;;;;22.21;25.42;98289.88;4793476;29;1069;-74
2021/12/31 10:35:38;;;;;;;;;;;;;;;22.46;25.16;98286.44;4827261;29;953;-75
2021/12/31 10:38:04;;;;;;;;;;;;;;;22.59;24.89;98281.66;4827646;29;986;-75
2021/12/31 10:40:40;;;;;;;;;;;;;;;22.56;24.92;98286.16;4827431;29;1121;-75
2021/12/31 10:43:08;;;;;;;;;;;;;;;22.55;24.98;98289.44;4847207;29;1912;-75
2021/12/31 10:45:34;;;;;;;;;;;;;;;22.53;25.05;98289.06;4864046;29;996;-74
2021/12/31 10:48:06;;;;;;;;;;;;;;;22.93;24.20;98295.34;4883676;29;1019;-75
2021/12/31 10:50:32;;;;;;;;;;;;;;;22.61;24.81;98287.66;4882140;29;1031;-75
2021/12/31 10:53:20;;;;;;;;;;;;;;;21.90;25.67;98286.53;4882766;29;1112;-75
2021/12/31 10:55:45;;;;;;;;;;;;;;;21.63;26.16;98284.72;4827062;29;1094;-75
2021/12/31 10:58:11;;;;;;;;;;;;;;;21.89;26.12;98279.28;4826853;29;1094;-75
2021/12/31 11:00:38;;;;;;;;;;;;;;;22.38;25.45;98277.28;4827888;29;1030;-75
2021/12/31 11:03:04;;;;;;;;;;;;;;;22.36;25.06;98269.25;4848973;29;1911;-75
2021/12/31 11:05:29;;;;;;;;;;;;;;;22.81;24.65;98281.88;4900062;29;1402;-75
2021/12/31 11:07:59;;;;;;;;;;;;;;;22.48;25.10;98272.59;4869918;29;1285;-75
2021/12/31 11:10:26;;;;;;;;;;;;;;;21.63;26.33;98261.28;4844887;29;973;-75
2021/12/31 11:12:51;;;;;;;;;;;;;;;21.37;26.94;98254.56;4845294;29;1080;-74
2021/12/31 11:15:17;;;;;;;;;;;;;;;21.65;26.39;98270.13;4845384;29;1011;-75
2021/12/31 11:17:43;;;;;;;;;;;;;;;21.63;26.46;98275.44;4845085;29;1073;-75
2021/12/31 11:20:09;;;;;;;;;;;;;;;21.85;26.32;98268.81;4845283;29;1005;-75
2021/12/31 11:22:34;;;;;;;;;;;;;;;22.06;25.70;98255.41;4861989;29;1986;-75
2021/12/31 11:25:18;;;;;;;;;;;;;;;22.19;25.48;98256.31;4826484;29;1347;-75
2021/12/31 11:27:46;;;;;;;;;;;;;;;22.07;25.73;98251.31;4808186;29;1023;-75
2021/12/31 11:30:31;;;;;;;;;;;;;;;22.02;25.94;98249.84;4790086;29;1040;-75
2021/12/31 11:32:56;;;;;;;;;;;;;;;21.85;26.39;98234.03;4790530;30;1052;-75
2021/12/31 11:35:40;;;;;;;;;;;;;;;21.94;25.94;98230.59;4789972;30;939;-75
2021/12/31 11:38:07;;;;;;;;;;;;;;;22.19;25.70;98225.16;4793054;29;998;-75
2021/12/31 11:40:34;;;;;;;;;;;;;;;22.08;26.15;98225.38;4792851;29;987;-75
2021/12/31 11:43:14;;;;;;;;;;;;;;;22.49;25.00;98238.13;4826940;29;1984;-75
2021/12/31 11:45:40;;;;;;;;;;;;;;;21.60;26.71;98234.63;4844625;29;1016;-74
2021/12/31 11:48:24;;;;;;;;;;;;;;;21.81;26.33;98231.31;4844495;29;1088;-75
2021/12/31 11:51:03;;;;;;;;;;;;;;;22.47;25.58;98234.16;4844436;29;1072;-75
2021/12/31 11:53:28;;;;;;;;;;;;;;;22.41;25.38;98235.94;4814194;29;954;-74
2021/12/31 11:55:54;;;;;;;;;;;;;;;22.36;25.71;98229.56;4861317;29;1004;-75
2021/12/31 11:58:38;;;;;;;;;;;;;;;22.15;25.79;98221.59;4893790;29;1183;-75
2021/12/31 12:01:22;;;;;;;;;;;;;;;22.29;25.58;98224.06;4918812;29;1006;-75
2021/12/31 12:03:47;;;;;;;;;;;;;;;22.27;25.96;98215.19;4918986;29;1910;-75
2021/12/31 12:06:36;;;;;;;;;;;;;;;22.03;26.34;98217.41;4918637;29;966;-75
2021/12/31 12:09:02;;;;;;;;;;;;;;;22.04;25.90;98202.00;4900231;29;1128;-74
2021/12/31 12:11:45;;;;;;;;;;;;;;;22.00;26.32;98206.16;4899961;29;1023;-75
2021/12/31 12:14:29;;;;;;;;;;;;;;;22.68;25.31;98199.53;4899933;29;1000;-75
2021/12/31 12:16:57;;;;;;;;;;;;;;;22.44;25.28;98206.69;4899338;29;966;-75
2021/12/31 12:19:22;;;;;;;;;;;;;;;22.21;25.56;98197.16;4884322;29;988;-75
2021/12/31 12:21:51;;;;;;;;;;;;;;;22.01;26.42;98202.09;4883724;29;991;-75
2021/12/31 12:24:17;;;;;;;;;;;;;;;22.87;25.17;98195.75;4861993;29;1907;-75
2021/12/31 12:26:45;;;;;;;;;;;;;;;22.12;26.06;98201.84;4865088;29;1158;-75
2021/12/31 12:29:10;;;;;;;;;;;;;;;22.09;26.17;98197.84;4862415;29;950;-75
2021/12/31 12:31:40;;;;;;;;;;;;;;;21.67;26.83;98189.16;4881099;29;953;-75
2021/12/31 12:34:07;;;;;;;;;;;;;;;22.15;26.08;98196.09;4880491;29;1074;-75
2021/12/31 12:36:33;;;;;;;;;;;;;;;21.92;26.47;98187.75;4881055;29;1003;-75
2021/12/31 12:39:03;;;;;;;;;;;;;;;22.36;25.69;98204.03;4880708;29;994;-75
2021/12/31 12:41:28;;;;;;;;;;;;;;;22.24;26.06;98199.09;4880813;29;1142;-75
2021/12/31 12:43:54;;;;;;;;;;;;;;;21.73;26.64;98207.22;4880843;29;1907;-75
2021/12/31 12:46:24;;;;;;;;;;;;;;;21.60;27.25;98206.31;4896932;29;997;-75
2021/12/31 12:48:50;;;;;;;;;;;;;;;22.21;26.28;98211.31;4880167;29;1114;-74
2021/12/31 12:51:16;;;;;;;;;;;;;;;21.51;27.23;98220.28;4861632;29;1219;-75
2021/12/31 12:53:42;;;;;;;;;;;;;;;21.59;27.32;98211.19;4861848;29;953;-75
2021/12/31 12:56:08;;;;;;;;;;;;;;;21.99;26.30;98218.75;4815412;29;1086;-75
2021/12/31 12:58:38;;;;;;;;;;;;;;;21.70;27.11;98222.25;4861596;29;1039;-75